sensor_id;sensor_type;location;lat;lon;timestamp;temperature;humidity
3186;DHT22;1604;53.700;10.252;2023-04-25T00:03:00;7.50;99.90
3186;DHT22;1604;53.700;10.252;2023-04-25T00:06:02;7.50;99.90
3186;DHT22;1604;53.700;10.252;2023-04-25T00:09:04;7.50;99.90
3186;DHT22;1604;53.700;10.252;2023-04-25T00:12:09;7.60;99.90
3186;DHT22;1604;53.700;10.252;2023-04-25T00:15:12;7.50;99.90
3186;DHT22;1604;53.700;10.252;2023-04-25T00:18:14;7.60;99.90
3186;DHT22;1604;53.700;10.252;2023-04-25T00:21:16;7.60;99.90
3186;DHT22;1604;53.700;10.252;2023-04-25T00:24:19;7.60;99.90
3186;DHT22;1604;53.700;10.252;2023-04-25T00:27:22;7.50;99.90
3186;DHT22;1604;53.700;10.252;2023-04-25T00:30:24;7.50;99.90
3186;DHT22;1604;53.700;10.252;2023-04-25T00:33:26;7.50;99.90
3186;DHT22;1604;53.700;10.252;2023-04-25T00:36:28;7.50;99.90
3186;DHT22;1604;53.700;10.252;2023-04-25T00:39:30;7.50;99.90
3186;DHT22;1604;53.700;10.252;2023-04-25T00:42:34;7.40;99.90
3186;DHT22;1604;53.700;10.252;2023-04-25T00:45:38;7.40;99.90
3186;DHT22;1604;53.700;10.252;2023-04-25T00:48:41;7.30;99.90
3186;DHT22;1604;53.700;10.252;2023-04-25T00:51:43;7.30;99.90
3186;DHT22;1604;53.700;10.252;2023-04-25T00:54:45;7.30;99.90
3186;DHT22;1604;53.700;10.252;2023-04-25T00:57:49;7.20;99.90
3186;DHT22;1604;53.700;10.252;2023-04-25T01:00:51;7.20;99.90
3186;DHT22;1604;53.700;10.252;2023-04-25T01:03:54;7.20;99.90
3186;DHT22;1604;53.700;10.252;2023-04-25T01:06:56;7.10;99.90
3186;DHT22;1604;53.700;10.252;2023-04-25T01:09:58;7.10;99.90
3186;DHT22;1604;53.700;10.252;2023-04-25T01:13:02;7.10;99.90
3186;DHT22;1604;53.700;10.252;2023-04-25T01:16:04;7.00;99.90
3186;DHT22;1604;53.700;10.252;2023-04-25T01:19:09;7.00;99.90
3186;DHT22;1604;53.700;10.252;2023-04-25T01:22:14;7.00;99.90
3186;DHT22;1604;53.700;10.252;2023-04-25T01:25:16;7.00;99.90
3186;DHT22;1604;53.700;10.252;2023-04-25T01:28:18;7.00;99.90
3186;DHT22;1604;53.700;10.252;2023-04-25T01:31:26;6.90;99.90
3186;DHT22;1604;53.700;10.252;2023-04-25T01:34:29;6.90;99.90
3186;DHT22;1604;53.700;10.252;2023-04-25T01:37:32;6.90;99.90
3186;DHT22;1604;53.700;10.252;2023-04-25T01:40:34;6.90;99.90
3186;DHT22;1604;53.700;10.252;2023-04-25T01:43:38;6.90;99.90
3186;DHT22;1604;53.700;10.252;2023-04-25T01:46:41;6.90;99.90
3186;DHT22;1604;53.700;10.252;2023-04-25T01:49:43;6.90;99.90
3186;DHT22;1604;53.700;10.252;2023-04-25T01:52:46;6.80;99.90
3186;DHT22;1604;53.700;10.252;2023-04-25T01:55:48;6.80;99.90
3186;DHT22;1604;53.700;10.252;2023-04-25T01:58:50;6.80;99.90
3186;DHT22;1604;53.700;10.252;2023-04-25T02:01:52;6.70;99.90
3186;DHT22;1604;53.700;10.252;2023-04-25T02:04:54;6.70;99.90
3186;DHT22;1604;53.700;10.252;2023-04-25T02:07:58;6.60;99.90
3186;DHT22;1604;53.700;10.252;2023-04-25T02:14:57;6.60;99.90
3186;DHT22;1604;53.700;10.252;2023-04-25T02:17:59;6.60;99.90
3186;DHT22;1604;53.700;10.252;2023-04-25T02:21:01;6.60;99.90
3186;DHT22;1604;53.700;10.252;2023-04-25T02:24:06;6.50;99.90
3186;DHT22;1604;53.700;10.252;2023-04-25T02:27:08;6.50;99.90
3186;DHT22;1604;53.700;10.252;2023-04-25T02:30:11;6.50;99.90
3186;DHT22;1604;53.700;10.252;2023-04-25T02:33:13;6.40;99.90
3186;DHT22;1604;53.700;10.252;2023-04-25T02:36:17;6.40;99.90
3186;DHT22;1604;53.700;10.252;2023-04-25T02:39:20;6.40;99.90
3186;DHT22;1604;53.700;10.252;2023-04-25T02:42:22;6.30;99.90
3186;DHT22;1604;53.700;10.252;2023-04-25T02:45:24;6.30;99.90
3186;DHT22;1604;53.700;10.252;2023-04-25T02:48:26;6.20;99.90
3186;DHT22;1604;53.700;10.252;2023-04-25T02:51:29;6.20;99.90
3186;DHT22;1604;53.700;10.252;2023-04-25T02:54:32;6.20;99.90
3186;DHT22;1604;53.700;10.252;2023-04-25T02:57:34;6.10;99.90
3186;DHT22;1604;53.700;10.252;2023-04-25T03:00:36;6.10;99.90
3186;DHT22;1604;53.700;10.252;2023-04-25T03:03:38;6.10;99.90
3186;DHT22;1604;53.700;10.252;2023-04-25T03:06:40;6.10;99.90
3186;DHT22;1604;53.700;10.252;2023-04-25T03:09:43;6.10;99.90
3186;DHT22;1604;53.700;10.252;2023-04-25T03:49:18;5.50;99.90
3186;DHT22;1604;53.700;10.252;2023-04-25T03:52:20;5.40;99.90
3186;DHT22;1604;53.700;10.252;2023-04-25T03:55:22;5.30;99.90
3186;DHT22;1604;53.700;10.252;2023-04-25T03:58:24;5.30;99.90
3186;DHT22;1604;53.700;10.252;2023-04-25T04:01:26;5.20;99.90
3186;DHT22;1604;53.700;10.252;2023-04-25T04:04:29;5.20;99.90
3186;DHT22;1604;53.700;10.252;2023-04-25T04:07:31;5.20;99.90
3186;DHT22;1604;53.700;10.252;2023-04-25T04:10:34;5.10;99.90
3186;DHT22;1604;53.700;10.252;2023-04-25T04:13:36;5.10;99.90
3186;DHT22;1604;53.700;10.252;2023-04-25T04:16:38;5.10;99.90
3186;DHT22;1604;53.700;10.252;2023-04-25T04:19:41;5.10;99.90
3186;DHT22;1604;53.700;10.252;2023-04-25T04:22:43;5.10;99.90
3186;DHT22;1604;53.700;10.252;2023-04-25T04:25:45;5.10;99.90
3186;DHT22;1604;53.700;10.252;2023-04-25T04:28:47;5.10;99.90
3186;DHT22;1604;53.700;10.252;2023-04-25T04:31:50;5.10;99.90
3186;DHT22;1604;53.700;10.252;2023-04-25T04:34:54;5.10;99.90
3186;DHT22;1604;53.700;10.252;2023-04-25T04:37:56;5.10;99.90
3186;DHT22;1604;53.700;10.252;2023-04-25T04:40:58;5.10;99.90
3186;DHT22;1604;53.700;10.252;2023-04-25T04:44:00;5.10;99.90
3186;DHT22;1604;53.700;10.252;2023-04-25T04:47:03;5.10;99.90
3186;DHT22;1604;53.700;10.252;2023-04-25T04:50:10;5.20;99.90
3186;DHT22;1604;53.700;10.252;2023-04-25T04:53:12;5.20;99.90
3186;DHT22;1604;53.700;10.252;2023-04-25T04:56:14;5.20;99.90
3186;DHT22;1604;53.700;10.252;2023-04-25T04:59:16;5.20;99.90
3186;DHT22;1604;53.700;10.252;2023-04-25T05:02:18;5.20;99.90
3186;DHT22;1604;53.700;10.252;2023-04-25T05:05:21;5.20;99.90
3186;DHT22;1604;53.700;10.252;2023-04-25T05:08:23;5.30;99.90
3186;DHT22;1604;53.700;10.252;2023-04-25T05:11:25;5.30;99.90
3186;DHT22;1604;53.700;10.252;2023-04-25T05:14:27;5.30;99.90
3186;DHT22;1604;53.700;10.252;2023-04-25T05:17:29;5.30;99.90
3186;DHT22;1604;53.700;10.252;2023-04-25T05:20:32;5.40;99.90
3186;DHT22;1604;53.700;10.252;2023-04-25T05:23:34;5.40;99.90
3186;DHT22;1604;53.700;10.252;2023-04-25T05:26:37;5.40;99.90
3186;DHT22;1604;53.700;10.252;2023-04-25T05:29:39;5.50;99.90
3186;DHT22;1604;53.700;10.252;2023-04-25T05:32:41;5.50;99.90
3186;DHT22;1604;53.700;10.252;2023-04-25T05:35:44;5.60;99.90
3186;DHT22;1604;53.700;10.252;2023-04-25T05:38:46;5.60;99.90
3186;DHT22;1604;53.700;10.252;2023-04-25T05:41:48;5.70;99.90
3186;DHT22;1604;53.700;10.252;2023-04-25T05:44:50;5.70;99.90
3186;DHT22;1604;53.700;10.252;2023-04-25T05:47:52;5.70;99.90
3186;DHT22;1604;53.700;10.252;2023-04-25T05:50:55;5.80;99.90
3186;DHT22;1604;53.700;10.252;2023-04-25T05:53:57;5.70;99.90
3186;DHT22;1604;53.700;10.252;2023-04-25T05:56:59;5.80;99.90
3186;DHT22;1604;53.700;10.252;2023-04-25T06:00:03;5.80;99.90
3186;DHT22;1604;53.700;10.252;2023-04-25T06:03:09;5.80;99.90
3186;DHT22;1604;53.700;10.252;2023-04-25T06:06:12;5.80;99.90
3186;DHT22;1604;53.700;10.252;2023-04-25T06:09:14;5.80;99.90
3186;DHT22;1604;53.700;10.252;2023-04-25T06:12:16;5.80;99.90
3186;DHT22;1604;53.700;10.252;2023-04-25T06:15:18;5.90;99.90
3186;DHT22;1604;53.700;10.252;2023-04-25T06:18:20;5.90;99.90
3186;DHT22;1604;53.700;10.252;2023-04-25T06:21:23;5.90;99.90
3186;DHT22;1604;53.700;10.252;2023-04-25T06:24:26;5.90;99.90
3186;DHT22;1604;53.700;10.252;2023-04-25T06:27:28;5.90;99.90
3186;DHT22;1604;53.700;10.252;2023-04-25T06:30:30;6.00;99.90
3186;DHT22;1604;53.700;10.252;2023-04-25T06:33:32;6.00;99.90
3186;DHT22;1604;53.700;10.252;2023-04-25T06:36:35;6.00;99.90
3186;DHT22;1604;53.700;10.252;2023-04-25T06:39:37;6.10;99.90
3186;DHT22;1604;53.700;10.252;2023-04-25T06:42:39;6.10;99.90
3186;DHT22;1604;53.700;10.252;2023-04-25T06:45:41;6.20;99.90
3186;DHT22;1604;53.700;10.252;2023-04-25T06:48:43;6.20;99.90
3186;DHT22;1604;53.700;10.252;2023-04-25T06:51:46;6.20;99.90
3186;DHT22;1604;53.700;10.252;2023-04-25T06:54:48;6.30;99.90
3186;DHT22;1604;53.700;10.252;2023-04-25T06:57:50;6.30;99.90
3186;DHT22;1604;53.700;10.252;2023-04-25T07:00:52;6.30;99.90
3186;DHT22;1604;53.700;10.252;2023-04-25T07:03:54;6.40;99.90
3186;DHT22;1604;53.700;10.252;2023-04-25T07:06:57;6.40;99.90
3186;DHT22;1604;53.700;10.252;2023-04-25T07:10:01;6.40;99.90
3186;DHT22;1604;53.700;10.252;2023-04-25T07:13:03;6.20;99.90
3186;DHT22;1604;53.700;10.252;2023-04-25T07:16:05;6.10;99.90
3186;DHT22;1604;53.700;10.252;2023-04-25T07:19:07;6.00;99.90
3186;DHT22;1604;53.700;10.252;2023-04-25T07:22:11;6.00;99.90
3186;DHT22;1604;53.700;10.252;2023-04-25T07:25:12;6.20;99.90
3186;DHT22;1604;53.700;10.252;2023-04-25T07:28:14;6.40;99.90
3186;DHT22;1604;53.700;10.252;2023-04-25T07:31:17;6.50;99.90
3186;DHT22;1604;53.700;10.252;2023-04-25T07:34:19;6.70;99.90
3186;DHT22;1604;53.700;10.252;2023-04-25T07:37:23;6.80;99.90
3186;DHT22;1604;53.700;10.252;2023-04-25T07:40:25;6.90;99.90
3186;DHT22;1604;53.700;10.252;2023-04-25T07:43:27;6.90;99.90
3186;DHT22;1604;53.700;10.252;2023-04-25T07:46:29;7.00;99.90
3186;DHT22;1604;53.700;10.252;2023-04-25T07:49:31;7.10;99.90
3186;DHT22;1604;53.700;10.252;2023-04-25T07:52:35;7.10;99.90
3186;DHT22;1604;53.700;10.252;2023-04-25T07:55:37;7.20;99.90
3186;DHT22;1604;53.700;10.252;2023-04-25T07:58:40;7.30;99.90
3186;DHT22;1604;53.700;10.252;2023-04-25T08:01:42;7.50;99.80
3186;DHT22;1604;53.700;10.252;2023-04-25T08:04:44;7.80;99.90
3186;DHT22;1604;53.700;10.252;2023-04-25T08:07:48;8.10;99.50
3186;DHT22;1604;53.700;10.252;2023-04-25T08:10:50;8.30;99.50
3186;DHT22;1604;53.700;10.252;2023-04-25T08:13:52;8.50;99.90
3186;DHT22;1604;53.700;10.252;2023-04-25T08:16:54;8.70;98.90
3186;DHT22;1604;53.700;10.252;2023-04-25T08:19:56;8.90;97.50
3186;DHT22;1604;53.700;10.252;2023-04-25T08:22:59;9.00;96.00
3186;DHT22;1604;53.700;10.252;2023-04-25T08:26:02;9.00;95.60
3186;DHT22;1604;53.700;10.252;2023-04-25T08:29:05;8.80;95.80
3186;DHT22;1604;53.700;10.252;2023-04-25T08:32:07;8.70;95.60
3186;DHT22;1604;53.700;10.252;2023-04-25T08:35:09;8.60;96.70
3186;DHT22;1604;53.700;10.252;2023-04-25T08:38:13;8.20;98.80
3186;DHT22;1604;53.700;10.252;2023-04-25T08:41:15;7.80;99.20
3186;DHT22;1604;53.700;10.252;2023-04-25T08:44:17;7.70;99.90
3186;DHT22;1604;53.700;10.252;2023-04-25T08:47:22;7.70;99.90
3186;DHT22;1604;53.700;10.252;2023-04-25T08:50:24;7.80;99.00
3186;DHT22;1604;53.700;10.252;2023-04-25T08:53:32;7.90;99.20
3186;DHT22;1604;53.700;10.252;2023-04-25T08:56:35;8.10;99.50
3186;DHT22;1604;53.700;10.252;2023-04-25T08:59:37;8.40;96.10
3186;DHT22;1604;53.700;10.252;2023-04-25T09:02:42;8.70;94.30
3186;DHT22;1604;53.700;10.252;2023-04-25T09:05:44;9.10;91.80
3186;DHT22;1604;53.700;10.252;2023-04-25T09:08:50;9.40;91.90
3186;DHT22;1604;53.700;10.252;2023-04-25T09:11:54;9.80;89.90
3186;DHT22;1604;53.700;10.252;2023-04-25T09:15:06;10.00;87.90
3186;DHT22;1604;53.700;10.252;2023-04-25T09:18:09;9.90;80.70
3186;DHT22;1604;53.700;10.252;2023-04-25T09:21:11;9.70;77.40
3186;DHT22;1604;53.700;10.252;2023-04-25T09:24:15;9.60;78.70
3186;DHT22;1604;53.700;10.252;2023-04-25T09:27:19;9.50;79.40
3186;DHT22;1604;53.700;10.252;2023-04-25T09:30:29;9.40;80.00
3186;DHT22;1604;53.700;10.252;2023-04-25T09:33:32;9.30;80.80
3186;DHT22;1604;53.700;10.252;2023-04-25T09:36:35;9.30;83.00
3186;DHT22;1604;53.700;10.252;2023-04-25T09:39:39;9.30;78.80
3186;DHT22;1604;53.700;10.252;2023-04-25T09:42:41;9.20;79.00
3186;DHT22;1604;53.700;10.252;2023-04-25T09:45:43;9.20;80.00
3186;DHT22;1604;53.700;10.252;2023-04-25T09:48:49;9.50;77.80
3186;DHT22;1604;53.700;10.252;2023-04-25T09:51:54;9.70;76.60
3186;DHT22;1604;53.700;10.252;2023-04-25T09:54:58;10.10;74.90
3186;DHT22;1604;53.700;10.252;2023-04-25T09:58:04;10.40;72.90
3186;DHT22;1604;53.700;10.252;2023-04-25T10:01:07;10.50;71.90
3186;DHT22;1604;53.700;10.252;2023-04-25T10:04:11;10.50;73.10
3186;DHT22;1604;53.700;10.252;2023-04-25T10:07:13;10.40;73.30
3186;DHT22;1604;53.700;10.252;2023-04-25T10:10:17;10.40;73.80
3186;DHT22;1604;53.700;10.252;2023-04-25T10:13:20;10.50;75.10
3186;DHT22;1604;53.700;10.252;2023-04-25T10:16:22;10.70;76.30
3186;DHT22;1604;53.700;10.252;2023-04-25T10:19:25;10.70;79.00
3186;DHT22;1604;53.700;10.252;2023-04-25T10:22:31;10.90;77.40
3186;DHT22;1604;53.700;10.252;2023-04-25T10:25:36;11.10;74.00
3186;DHT22;1604;53.700;10.252;2023-04-25T10:28:55;11.30;71.00
3186;DHT22;1604;53.700;10.252;2023-04-25T10:31:58;11.30;72.60
3186;DHT22;1604;53.700;10.252;2023-04-25T10:35:10;11.20;71.90
3186;DHT22;1604;53.700;10.252;2023-04-25T10:38:14;10.90;70.90
3186;DHT22;1604;53.700;10.252;2023-04-25T10:41:18;10.70;72.10
3186;DHT22;1604;53.700;10.252;2023-04-25T10:44:21;10.50;73.30
3186;DHT22;1604;53.700;10.252;2023-04-25T10:47:34;10.40;77.90
3186;DHT22;1604;53.700;10.252;2023-04-25T10:50:37;10.20;79.90
3186;DHT22;1604;53.700;10.252;2023-04-25T10:53:40;10.20;82.20
3186;DHT22;1604;53.700;10.252;2023-04-25T10:56:43;10.20;82.00
3186;DHT22;1604;53.700;10.252;2023-04-25T10:59:47;10.10;82.90
3186;DHT22;1604;53.700;10.252;2023-04-25T11:02:52;10.10;81.90
3186;DHT22;1604;53.700;10.252;2023-04-25T11:05:54;9.90;84.30
3186;DHT22;1604;53.700;10.252;2023-04-25T11:08:56;9.50;83.10
3186;DHT22;1604;53.700;10.252;2023-04-25T11:12:00;9.30;84.50
3186;DHT22;1604;53.700;10.252;2023-04-25T11:15:03;9.20;81.00
3186;DHT22;1604;53.700;10.252;2023-04-25T11:18:05;9.10;80.20
3186;DHT22;1604;53.700;10.252;2023-04-25T11:21:07;9.20;79.80
3186;DHT22;1604;53.700;10.252;2023-04-25T11:24:09;9.30;80.90
3186;DHT22;1604;53.700;10.252;2023-04-25T11:27:13;9.50;80.00
3186;DHT22;1604;53.700;10.252;2023-04-25T11:30:15;9.80;79.40
3186;DHT22;1604;53.700;10.252;2023-04-25T11:33:17;10.30;82.40
3186;DHT22;1604;53.700;10.252;2023-04-25T11:36:19;10.60;76.20
3186;DHT22;1604;53.700;10.252;2023-04-25T11:39:21;10.80;77.40
3186;DHT22;1604;53.700;10.252;2023-04-25T11:42:26;11.00;79.40
3186;DHT22;1604;53.700;10.252;2023-04-25T11:45:29;11.30;76.90
3186;DHT22;1604;53.700;10.252;2023-04-25T11:48:37;11.50;74.60
3186;DHT22;1604;53.700;10.252;2023-04-25T11:51:40;11.50;73.80
3186;DHT22;1604;53.700;10.252;2023-04-25T11:54:44;11.10;81.20
3186;DHT22;1604;53.700;10.252;2023-04-25T11:57:49;10.70;84.80
3186;DHT22;1604;53.700;10.252;2023-04-25T12:00:51;10.20;85.60
3186;DHT22;1604;53.700;10.252;2023-04-25T12:03:53;9.90;88.60
3186;DHT22;1604;53.700;10.252;2023-04-25T12:06:55;9.70;91.30
3186;DHT22;1604;53.700;10.252;2023-04-25T12:09:57;9.80;90.90
3186;DHT22;1604;53.700;10.252;2023-04-25T12:13:17;10.00;90.20
3186;DHT22;1604;53.700;10.252;2023-04-25T12:16:19;10.20;88.80
3186;DHT22;1604;53.700;10.252;2023-04-25T12:19:21;10.50;87.70
3186;DHT22;1604;53.700;10.252;2023-04-25T12:22:24;10.80;86.20
3186;DHT22;1604;53.700;10.252;2023-04-25T12:25:36;10.80;79.00
3186;DHT22;1604;53.700;10.252;2023-04-25T12:28:44;10.70;78.60
3186;DHT22;1604;53.700;10.252;2023-04-25T12:31:48;10.70;77.10
3186;DHT22;1604;53.700;10.252;2023-04-25T12:34:51;10.90;75.20
3186;DHT22;1604;53.700;10.252;2023-04-25T12:37:53;11.10;70.00
3186;DHT22;1604;53.700;10.252;2023-04-25T12:40:55;10.90;70.70
3186;DHT22;1604;53.700;10.252;2023-04-25T12:43:58;10.80;72.70
3186;DHT22;1604;53.700;10.252;2023-04-25T12:47:00;10.70;74.80
3186;DHT22;1604;53.700;10.252;2023-04-25T12:50:04;10.50;73.40
3186;DHT22;1604;53.700;10.252;2023-04-25T12:53:06;10.10;75.80
3186;DHT22;1604;53.700;10.252;2023-04-25T12:56:09;9.90;77.10
3186;DHT22;1604;53.700;10.252;2023-04-25T12:59:12;9.60;76.20
3186;DHT22;1604;53.700;10.252;2023-04-25T13:02:14;9.60;76.80
3186;DHT22;1604;53.700;10.252;2023-04-25T13:05:16;9.80;79.60
3186;DHT22;1604;53.700;10.252;2023-04-25T13:08:18;10.10;80.20
3186;DHT22;1604;53.700;10.252;2023-04-25T13:11:20;10.20;79.40
3186;DHT22;1604;53.700;10.252;2023-04-25T13:14:24;10.30;76.00
3186;DHT22;1604;53.700;10.252;2023-04-25T13:17:26;10.40;71.60
3186;DHT22;1604;53.700;10.252;2023-04-25T13:20:28;10.50;70.70
3186;DHT22;1604;53.700;10.252;2023-04-25T13:23:30;10.60;71.90
3186;DHT22;1604;53.700;10.252;2023-04-25T13:26:32;10.80;71.20
3186;DHT22;1604;53.700;10.252;2023-04-25T13:29:35;10.90;69.70
3186;DHT22;1604;53.700;10.252;2023-04-25T13:32:39;10.90;72.40
3186;DHT22;1604;53.700;10.252;2023-04-25T13:35:42;11.00;70.80
3186;DHT22;1604;53.700;10.252;2023-04-25T13:38:47;10.80;70.90
3186;DHT22;1604;53.700;10.252;2023-04-25T13:41:49;10.90;74.30
3186;DHT22;1604;53.700;10.252;2023-04-25T13:44:53;10.80;74.40
3186;DHT22;1604;53.700;10.252;2023-04-25T13:47:54;10.70;77.70
3186;DHT22;1604;53.700;10.252;2023-04-25T13:50:57;10.60;80.60
3186;DHT22;1604;53.700;10.252;2023-04-25T13:53:59;10.50;81.10
3186;DHT22;1604;53.700;10.252;2023-04-25T13:57:01;10.50;81.50
3186;DHT22;1604;53.700;10.252;2023-04-25T14:00:05;10.40;81.00
3186;DHT22;1604;53.700;10.252;2023-04-25T14:03:09;10.30;82.20
3186;DHT22;1604;53.700;10.252;2023-04-25T14:06:11;10.20;83.70
3186;DHT22;1604;53.700;10.252;2023-04-25T14:09:13;10.00;85.90
3186;DHT22;1604;53.700;10.252;2023-04-25T14:12:16;9.90;88.00
3186;DHT22;1604;53.700;10.252;2023-04-25T14:15:19;9.80;90.20
3186;DHT22;1604;53.700;10.252;2023-04-25T14:18:21;9.90;85.90
3186;DHT22;1604;53.700;10.252;2023-04-25T14:21:23;9.90;83.00
3186;DHT22;1604;53.700;10.252;2023-04-25T14:24:25;10.00;79.20
3186;DHT22;1604;53.700;10.252;2023-04-25T14:27:27;10.00;75.40
3186;DHT22;1604;53.700;10.252;2023-04-25T14:30:31;10.00;73.80
3186;DHT22;1604;53.700;10.252;2023-04-25T14:33:33;10.10;73.70
3186;DHT22;1604;53.700;10.252;2023-04-25T14:36:35;10.20;73.70
3186;DHT22;1604;53.700;10.252;2023-04-25T14:39:37;10.30;74.70
3186;DHT22;1604;53.700;10.252;2023-04-25T14:42:39;10.50;71.40
3186;DHT22;1604;53.700;10.252;2023-04-25T14:45:43;10.50;72.10
3186;DHT22;1604;53.700;10.252;2023-04-25T14:48:45;10.60;71.90
3186;DHT22;1604;53.700;10.252;2023-04-25T14:51:47;10.60;72.70
3186;DHT22;1604;53.700;10.252;2023-04-25T14:54:50;10.60;70.60
3186;DHT22;1604;53.700;10.252;2023-04-25T14:57:53;10.50;72.40
3186;DHT22;1604;53.700;10.252;2023-04-25T15:00:57;10.30;72.10
3186;DHT22;1604;53.700;10.252;2023-04-25T15:03:58;10.10;74.70
3186;DHT22;1604;53.700;10.252;2023-04-25T15:07:01;9.70;80.70
3186;DHT22;1604;53.700;10.252;2023-04-25T15:10:04;9.30;84.70
3186;DHT22;1604;53.700;10.252;2023-04-25T15:13:06;9.20;86.60
3186;DHT22;1604;53.700;10.252;2023-04-25T15:16:09;9.10;88.40
3186;DHT22;1604;53.700;10.252;2023-04-25T15:19:12;9.10;88.50
3186;DHT22;1604;53.700;10.252;2023-04-25T15:22:14;9.00;89.90
3186;DHT22;1604;53.700;10.252;2023-04-25T15:25:16;8.80;91.50
3186;DHT22;1604;53.700;10.252;2023-04-25T15:28:18;8.40;93.70
3186;DHT22;1604;53.700;10.252;2023-04-25T15:31:23;8.20;94.10
3186;DHT22;1604;53.700;10.252;2023-04-25T15:34:25;8.00;93.20
3186;DHT22;1604;53.700;10.252;2023-04-25T15:37:27;7.90;93.30
3186;DHT22;1604;53.700;10.252;2023-04-25T15:40:29;7.80;93.40
3186;DHT22;1604;53.700;10.252;2023-04-25T15:43:31;7.80;92.00
3186;DHT22;1604;53.700;10.252;2023-04-25T15:46:37;7.90;91.70
3186;DHT22;1604;53.700;10.252;2023-04-25T15:49:39;8.00;90.40
3186;DHT22;1604;53.700;10.252;2023-04-25T15:52:41;8.10;90.00
3186;DHT22;1604;53.700;10.252;2023-04-25T15:55:43;8.20;89.60
3186;DHT22;1604;53.700;10.252;2023-04-25T15:58:45;8.30;88.40
3186;DHT22;1604;53.700;10.252;2023-04-25T16:01:48;8.30;89.40
3186;DHT22;1604;53.700;10.252;2023-04-25T16:04:51;8.30;87.50
3186;DHT22;1604;53.700;10.252;2023-04-25T16:07:53;8.40;87.00
3186;DHT22;1604;53.700;10.252;2023-04-25T16:10:55;8.40;87.20
3186;DHT22;1604;53.700;10.252;2023-04-25T16:13:57;8.40;85.90
3186;DHT22;1604;53.700;10.252;2023-04-25T16:17:00;8.40;85.10
3186;DHT22;1604;53.700;10.252;2023-04-25T16:20:03;8.50;83.70
3186;DHT22;1604;53.700;10.252;2023-04-25T16:23:09;8.60;83.40
3186;DHT22;1604;53.700;10.252;2023-04-25T16:26:11;8.70;78.80
3186;DHT22;1604;53.700;10.252;2023-04-25T16:29:13;8.70;76.50
3186;DHT22;1604;53.700;10.252;2023-04-25T16:32:18;8.60;77.10
3186;DHT22;1604;53.700;10.252;2023-04-25T16:35:20;8.50;77.10
3186;DHT22;1604;53.700;10.252;2023-04-25T16:38:22;8.40;79.30
3186;DHT22;1604;53.700;10.252;2023-04-25T16:41:24;8.40;80.30
3186;DHT22;1604;53.700;10.252;2023-04-25T16:44:27;8.30;84.20
3186;DHT22;1604;53.700;10.252;2023-04-25T16:47:30;8.10;91.70
3186;DHT22;1604;53.700;10.252;2023-04-25T16:50:32;7.70;95.90
3186;DHT22;1604;53.700;10.252;2023-04-25T16:53:34;7.30;98.40
3186;DHT22;1604;53.700;10.252;2023-04-25T16:56:36;7.10;99.60
3186;DHT22;1604;53.700;10.252;2023-04-25T16:59:38;6.70;99.90
3186;DHT22;1604;53.700;10.252;2023-04-25T17:02:42;6.50;99.90
3186;DHT22;1604;53.700;10.252;2023-04-25T17:05:44;6.40;99.90
3186;DHT22;1604;53.700;10.252;2023-04-25T17:08:47;6.30;99.90
3186;DHT22;1604;53.700;10.252;2023-04-25T17:11:49;6.20;99.90
3186;DHT22;1604;53.700;10.252;2023-04-25T17:14:51;6.20;99.90
3186;DHT22;1604;53.700;10.252;2023-04-25T17:17:54;6.20;99.90
3186;DHT22;1604;53.700;10.252;2023-04-25T17:20:56;6.20;99.90
3186;DHT22;1604;53.700;10.252;2023-04-25T17:23:59;6.20;99.90
3186;DHT22;1604;53.700;10.252;2023-04-25T17:27:00;6.20;99.90
3186;DHT22;1604;53.700;10.252;2023-04-25T17:30:03;6.30;99.90
3186;DHT22;1604;53.700;10.252;2023-04-25T17:33:06;6.20;99.90
3186;DHT22;1604;53.700;10.252;2023-04-25T17:36:08;6.20;99.90
3186;DHT22;1604;53.700;10.252;2023-04-25T17:39:10;6.20;99.90
3186;DHT22;1604;53.700;10.252;2023-04-25T17:42:14;6.20;99.90
3186;DHT22;1604;53.700;10.252;2023-04-25T17:45:16;6.20;99.90
3186;DHT22;1604;53.700;10.252;2023-04-25T17:48:19;6.10;99.90
3186;DHT22;1604;53.700;10.252;2023-04-25T17:51:22;6.10;99.90
3186;DHT22;1604;53.700;10.252;2023-04-25T17:54:24;6.00;99.90
3186;DHT22;1604;53.700;10.252;2023-04-25T17:57:27;6.00;99.90
3186;DHT22;1604;53.700;10.252;2023-04-25T18:00:29;5.90;99.90
3186;DHT22;1604;53.700;10.252;2023-04-25T18:03:33;6.00;99.90
3186;DHT22;1604;53.700;10.252;2023-04-25T18:06:37;6.00;99.90
3186;DHT22;1604;53.700;10.252;2023-04-25T18:09:39;5.90;99.90
3186;DHT22;1604;53.700;10.252;2023-04-25T18:12:41;5.90;99.90
3186;DHT22;1604;53.700;10.252;2023-04-25T18:15:43;5.90;99.90
3186;DHT22;1604;53.700;10.252;2023-04-25T18:18:47;5.80;99.90
3186;DHT22;1604;53.700;10.252;2023-04-25T18:21:53;5.80;99.90
3186;DHT22;1604;53.700;10.252;2023-04-25T18:24:55;5.80;99.90
3186;DHT22;1604;53.700;10.252;2023-04-25T18:27:57;5.70;99.90
3186;DHT22;1604;53.700;10.252;2023-04-25T18:30:59;5.70;99.90
3186;DHT22;1604;53.700;10.252;2023-04-25T18:34:03;5.60;99.90
3186;DHT22;1604;53.700;10.252;2023-04-25T18:37:05;5.50;99.90
3186;DHT22;1604;53.700;10.252;2023-04-25T18:40:08;5.50;99.90
3186;DHT22;1604;53.700;10.252;2023-04-25T18:43:13;5.50;99.90
3186;DHT22;1604;53.700;10.252;2023-04-25T18:46:15;5.50;99.90
3186;DHT22;1604;53.700;10.252;2023-04-25T18:49:18;5.40;99.90
3186;DHT22;1604;53.700;10.252;2023-04-25T18:52:21;5.40;99.90
3186;DHT22;1604;53.700;10.252;2023-04-25T18:55:25;5.30;99.90
3186;DHT22;1604;53.700;10.252;2023-04-25T18:58:27;5.30;99.90
3186;DHT22;1604;53.700;10.252;2023-04-25T19:01:30;5.30;99.90
3186;DHT22;1604;53.700;10.252;2023-04-25T19:04:33;5.30;99.90
3186;DHT22;1604;53.700;10.252;2023-04-25T19:07:36;5.30;99.90
3186;DHT22;1604;53.700;10.252;2023-04-25T19:10:38;5.20;99.90
3186;DHT22;1604;53.700;10.252;2023-04-25T19:13:40;5.20;99.90
3186;DHT22;1604;53.700;10.252;2023-04-25T19:16:42;5.20;99.90
3186;DHT22;1604;53.700;10.252;2023-04-25T19:19:46;5.20;99.90
3186;DHT22;1604;53.700;10.252;2023-04-25T19:22:48;5.10;99.90
3186;DHT22;1604;53.700;10.252;2023-04-25T19:25:50;5.10;99.90
3186;DHT22;1604;53.700;10.252;2023-04-25T19:29:02;5.10;99.90
3186;DHT22;1604;53.700;10.252;2023-04-25T19:32:05;5.00;99.90
3186;DHT22;1604;53.700;10.252;2023-04-25T19:35:09;5.00;99.90
3186;DHT22;1604;53.700;10.252;2023-04-25T19:38:11;5.00;99.90
3186;DHT22;1604;53.700;10.252;2023-04-25T19:41:14;5.00;99.90
3186;DHT22;1604;53.700;10.252;2023-04-25T19:44:17;5.00;99.90
3186;DHT22;1604;53.700;10.252;2023-04-25T19:47:19;5.00;99.90
3186;DHT22;1604;53.700;10.252;2023-04-25T19:50:22;4.90;99.90
3186;DHT22;1604;53.700;10.252;2023-04-25T19:53:24;4.90;99.90
3186;DHT22;1604;53.700;10.252;2023-04-25T19:56:26;4.90;99.90
3186;DHT22;1604;53.700;10.252;2023-04-25T19:59:29;4.90;99.90
3186;DHT22;1604;53.700;10.252;2023-04-25T20:02:31;4.80;99.90
3186;DHT22;1604;53.700;10.252;2023-04-25T20:05:34;4.80;99.90
3186;DHT22;1604;53.700;10.252;2023-04-25T20:08:36;4.80;99.90
3186;DHT22;1604;53.700;10.252;2023-04-25T20:11:38;4.80;99.90
3186;DHT22;1604;53.700;10.252;2023-04-25T20:14:40;4.80;99.90
3186;DHT22;1604;53.700;10.252;2023-04-25T20:17:42;4.80;99.90
3186;DHT22;1604;53.700;10.252;2023-04-25T20:20:45;4.70;99.90
3186;DHT22;1604;53.700;10.252;2023-04-25T20:23:47;4.70;99.90
3186;DHT22;1604;53.700;10.252;2023-04-25T20:26:49;4.70;99.90
3186;DHT22;1604;53.700;10.252;2023-04-25T20:29:51;4.70;99.90